»·PEaware :: N925DM KDEN-KEGE

N925DM :: KDEN-KEGE

FLIGHT INFORMATION

Flight Status: Arrived
Operator: Privately registered:
United States
More flights under this callsign
Pilot: Anonymous 10623 (10623)
Aircraft: GATES LEARJET LEARJET 35/36
(LJ35)
More flights by this aircraft type
Origin: KDEN Denver Intl
United States
Destination: KEGE Eagle Co Regl
United States
More flights between these airports :: More routes between these airports
Route: ZIMMR2 CHNGY QNDRY
File this flight plan on PilotEdge
Remarks:
Altitude:
(Current/Filed)
28,000ft
Speed:
(Current/Filed)
445kts
Departed: 07-Apr-21 12:07 PM
Arrived: 07-Apr-21 12:36 PM
Distance/Time
Traveled:
104nm/0:29
Distance/Time
To Go:
Arrived

Flight Plot

Page will automatically refresh every two minutes.

Flight plan parsing failed; only flown route is shown


Map Options




Map Legend


Flown Route
Filed Route
Departure Airport
Arrival Airport
Navaid (VOR, NDB)
Fix

Horizontal Profiles

Position Reports

Time Latitude Longitude Heading Altitude Ground
Speed
07-Apr-21 11:38 39.839341 -104.664689 0 5434ft 0kts
07-Apr-21 11:40 39.839341 -104.664689 0 5434ft 0kts
07-Apr-21 11:41 39.839341 -104.664689 0 5434ft 0kts
07-Apr-21 11:42 39.839341 -104.664689 0 5434ft 0kts
07-Apr-21 11:43 39.839341 -104.664689 0 5434ft 0kts
07-Apr-21 11:44 39.839341 -104.664689 0 5434ft 0kts
07-Apr-21 11:45 39.839341 -104.664689 0 5434ft 0kts
07-Apr-21 11:46 39.839341 -104.664689 0 5434ft 0kts
07-Apr-21 11:47 39.839341 -104.664689 0 5434ft 0kts
07-Apr-21 11:48 39.839341 -104.664689 0 5434ft 0kts
07-Apr-21 11:49 39.839341 -104.664689 0 5434ft 0kts
07-Apr-21 11:50 39.839341 -104.664689 0 5434ft 0kts
07-Apr-21 11:51 39.839341 -104.664689 0 5434ft 0kts
07-Apr-21 11:52 39.839341 -104.664689 0 5434ft 0kts
07-Apr-21 11:53 39.839341 -104.664689 0 5434ft 0kts
07-Apr-21 11:54 39.839341 -104.664689 0 5434ft 0kts
07-Apr-21 11:55 39.839341 -104.664689 0 5434ft 0kts
07-Apr-21 11:56 39.839341 -104.664689 0 5434ft 0kts
07-Apr-21 11:57 39.839342 -104.664689 359 5434ft 0kts
07-Apr-21 11:58 39.839725 -104.664381 49 5434ft 0kts
07-Apr-21 11:59 39.839726 -104.664379 49 5434ft 0kts
07-Apr-21 12:00 39.839756 -104.664315 65 5434ft 3kts
07-Apr-21 12:01 39.838563 -104.662562 183 5434ft 16kts
07-Apr-21 12:02 39.834709 -104.662597 180 5434ft 14kts
07-Apr-21 12:03 39.830380 -104.662687 179 5434ft 14kts
07-Apr-21 12:04 39.828365 -104.662101 88 5434ft 0kts
07-Apr-21 12:05 39.828367 -104.661979 88 5434ft 4kts
07-Apr-21 12:06 39.831722 -104.660522 1 5434ft 86kts
07-Apr-21 12:07 39.873615 -104.658682 352 8553ft 150kts
07-Apr-21 12:08 39.902539 -104.707196 286 11132ft 228kts
07-Apr-21 12:09 39.905710 -104.803286 278 13464ft 278kts
07-Apr-21 12:10 39.911609 -104.906193 282 15977ft 290kts
07-Apr-21 12:11 39.929696 -105.009927 287 18030ft 298kts
07-Apr-21 12:12 39.948956 -105.118282 287 20559ft 312kts
07-Apr-21 12:13 39.968804 -105.230717 286 22673ft 324kts
07-Apr-21 12:14 39.984516 -105.348004 273 24450ft 338kts
07-Apr-21 12:15 39.980922 -105.471063 272 26119ft 340kts
07-Apr-21 12:16 39.996445 -105.588953 300 27487ft 331kts
07-Apr-21 12:17 40.028990 -105.700110 274 28158ft 328kts
07-Apr-21 12:18 40.026796 -105.820207 273 28199ft 337kts
07-Apr-21 12:19 40.024270 -105.945820 273 28210ft 353kts
07-Apr-21 12:20 40.021505 -106.075599 272 28216ft 362kts
07-Apr-21 12:21 40.018561 -106.203602 272 27071ft 325kts
07-Apr-21 12:22 40.015992 -106.313252 272 24161ft 293kts
07-Apr-21 12:23 40.013441 -106.417078 272 20830ft 278kts
07-Apr-21 12:25 39.961287 -106.483502 192 17694ft 305kts
07-Apr-21 12:26 39.880630 -106.500133 203 14879ft 279kts
07-Apr-21 12:27 39.812079 -106.524417 201 14018ft 222kts
07-Apr-21 12:28 39.757126 -106.545509 205 13261ft 197kts
07-Apr-21 12:29 39.708716 -106.567934 221 12924ft 185kts
07-Apr-21 12:30 39.682943 -106.618086 260 11886ft 155kts
07-Apr-21 12:31 39.676452 -106.671621 264 10903ft 143kts
07-Apr-21 12:32 39.670385 -106.726968 263 10046ft 165kts
07-Apr-21 12:33 39.662489 -106.783555 259 8893ft 156kts
07-Apr-21 12:34 39.652209 -106.837152 258 7735ft 145kts
07-Apr-21 12:35 39.646174 -106.885277 263 6811ft 129kts
07-Apr-21 12:36 39.642317 -106.920218 262 6518ft 26kts
07-Apr-21 12:37 39.641050 -106.921368 82 6518ft 15kts
07-Apr-21 12:38 39.641867 -106.913936 82 6518ft 18kts
07-Apr-21 12:39 39.642212 -106.909475 138 6518ft 4kts
07-Apr-21 12:40 39.641455 -106.910224 263 6518ft 1kts
07-Apr-21 12:41 39.641455 -106.910226 263 6518ft 0kts
07-Apr-21 12:42 39.641455 -106.910226 263 6518ft 0kts

Navigation Log

Ident Type
Flight plan parsing failed, navigation log unavailable